Time;durP1;ratioP1;P1;durP2;ratioP2;P2;SDS_P1;SDS_P2;PMS_P1;PMS_P2;Temp;Humidity;BMP_temperature;BMP_pressure;BME280_temperature;BME280_humidity;BME280_pressure;Samples;Min_cycle;Max_cycle;Signal;HPM_P1;HPM_P2
2023/11/19 00:00:26;;;;;;;1.30;1.20;;;;;;;;;;5055608;28;20029;-76
2023/11/19 00:02:53;;;;;;;1.30;1.05;;;;;;;;;;5054945;28;20410;-76
2023/11/19 00:05:19;;;;;;;0.85;0.80;;;;;;;;;;5054774;28;20051;-75
2023/11/19 00:07:46;;;;;;;2.92;1.00;;;;;;;;;;5054785;28;20017;-76
2023/11/19 00:10:13;;;;;;;1.52;1.42;;;;;;;;;;5054995;28;20053;-76
2023/11/19 00:12:44;;;;;;;1.08;0.80;;;;;;;;;;5055016;28;20075;-77
2023/11/19 00:15:11;;;;;;;0.55;0.55;;;;;;;;;;5056109;28;20063;-77
2023/11/19 00:17:44;;;;;;;1.00;0.80;;;;;;;;;;5054738;28;20021;-77
2023/11/19 00:20:10;;;;;;;1.40;1.30;;;;;;;;;;5054617;28;20128;-77
2023/11/19 00:22:36;;;;;;;0.80;0.73;;;;;;;;;;5054943;28;20057;-77
2023/11/19 00:25:03;;;;;;;1.48;1.00;;;;;;;;;;5056109;28;20029;-78
2023/11/19 00:27:30;;;;;;;0.90;0.80;;;;;;;;;;5054670;28;20017;-77
2023/11/19 00:29:56;;;;;;;1.05;0.93;;;;;;;;;;5054682;28;20455;-78
2023/11/19 00:32:22;;;;;;;0.90;0.80;;;;;;;;;;5054375;28;20027;-78
2023/11/19 00:34:49;;;;;;;0.90;0.80;;;;;;;;;;5055476;28;20112;-78
2023/11/19 00:37:15;;;;;;;0.80;0.80;;;;;;;;;;5054972;28;20539;-78
2023/11/19 00:39:41;;;;;;;0.82;0.82;;;;;;;;;;5054940;28;20063;-78
2023/11/19 00:42:08;;;;;;;1.55;1.13;;;;;;;;;;5054838;28;20115;-85
2023/11/19 00:44:34;;;;;;;0.82;0.73;;;;;;;;;;5056171;28;20465;-83
2023/11/19 00:47:00;;;;;;;0.80;0.77;;;;;;;;;;5039271;28;20040;-79
2023/11/19 00:49:26;;;;;;;1.23;0.90;;;;;;;;;;5036526;28;20025;-79
2023/11/19 00:51:52;;;;;;;0.80;0.80;;;;;;;;;;5034701;28;20021;-79
2023/11/19 00:54:18;;;;;;;0.85;0.80;;;;;;;;;;5035876;28;20033;-80
2023/11/19 00:56:45;;;;;;;9.30;1.20;;;;;;;;;;5034366;28;20053;-78
2023/11/19 00:59:11;;;;;;;1.17;1.00;;;;;;;;;;5034520;28;20025;-79
2023/11/19 01:01:37;;;;;;;0.80;0.80;;;;;;;;;;5034253;28;20029;-78
2023/11/19 01:04:03;;;;;;;0.85;0.77;;;;;;;;;;5034325;28;20389;-78
2023/11/19 01:06:30;;;;;;;0.88;0.82;;;;;;;;;;5034268;28;20025;-79
2023/11/19 01:08:56;;;;;;;0.90;0.80;;;;;;;;;;5034142;28;20022;-79
2023/11/19 01:11:23;;;;;;;1.50;1.30;;;;;;;;;;5034205;28;20468;-78
2023/11/19 01:13:50;;;;;;;0.80;0.80;;;;;;;;;;5033968;28;20025;-78
2023/11/19 01:16:16;;;;;;;1.00;0.90;;;;;;;;;;5034008;28;20028;-79
2023/11/19 01:18:42;;;;;;;0.70;0.70;;;;;;;;;;5033782;28;20037;-79
2023/11/19 01:21:08;;;;;;;1.00;0.90;;;;;;;;;;5035233;28;20048;-79
2023/11/19 01:23:35;;;;;;;1.00;0.80;;;;;;;;;;5034086;28;20021;-81
2023/11/19 01:26:01;;;;;;;0.98;0.88;;;;;;;;;;5035043;28;20021;-80
2023/11/19 01:28:27;;;;;;;0.82;0.80;;;;;;;;;;5034213;28;20108;-80
2023/11/19 01:30:53;;;;;;;0.80;0.70;;;;;;;;;;5033761;28;20034;-79
2023/11/19 01:33:21;;;;;;;0.70;0.70;;;;;;;;;;5034359;28;20057;-80
2023/11/19 01:35:47;;;;;;;0.77;0.70;;;;;;;;;;5035750;28;20025;-79
2023/11/19 01:38:13;;;;;;;1.00;0.90;;;;;;;;;;5033797;28;20021;-79
2023/11/19 01:40:39;;;;;;;1.20;1.10;;;;;;;;;;5033323;28;20060;-80
2023/11/19 01:43:05;;;;;;;1.00;0.80;;;;;;;;;;5034015;28;20342;-79
2023/11/19 01:45:32;;;;;;;1.13;0.98;;;;;;;;;;5033729;28;20350;-79
2023/11/19 01:47:59;;;;;;;0.60;0.60;;;;;;;;;;5033327;28;20022;-79
2023/11/19 01:50:26;;;;;;;0.80;0.80;;;;;;;;;;5033612;28;20051;-79
2023/11/19 01:52:57;;;;;;;0.80;0.80;;;;;;;;;;5033462;28;20104;-79
2023/11/19 01:55:24;;;;;;;1.10;0.88;;;;;;;;;;5033289;28;20021;-79
2023/11/19 01:57:51;;;;;;;1.25;0.90;;;;;;;;;;5033672;28;20477;-81
2023/11/19 02:00:17;;;;;;;0.75;0.75;;;;;;;;;;5033303;28;20060;-78
2023/11/19 02:02:44;;;;;;;0.80;0.80;;;;;;;;;;5033188;28;20413;-78
2023/11/19 02:05:12;;;;;;;0.70;0.70;;;;;;;;;;5034481;28;20026;-80
2023/11/19 02:07:38;;;;;;;1.85;1.40;;;;;;;;;;5034502;28;20020;-81
2023/11/19 02:10:05;;;;;;;0.88;0.82;;;;;;;;;;5033183;28;20365;-79
2023/11/19 02:12:35;;;;;;;0.93;0.82;;;;;;;;;;5034120;28;20014;-80
2023/11/19 02:15:02;;;;;;;0.70;0.70;;;;;;;;;;5033541;28;20068;-80
2023/11/19 02:17:29;;;;;;;0.80;0.80;;;;;;;;;;5033020;28;20048;-80
2023/11/19 02:19:55;;;;;;;0.80;0.80;;;;;;;;;;5032837;28;20033;-80
2023/11/19 02:22:21;;;;;;;1.10;1.05;;;;;;;;;;5034463;28;20040;-80
2023/11/19 02:24:50;;;;;;;3.08;0.75;;;;;;;;;;5032916;28;20026;-81
2023/11/19 02:27:29;;;;;;;1.23;1.02;;;;;;;;;;5032678;28;20034;-80
2023/11/19 02:29:55;;;;;;;0.73;0.73;;;;;;;;;;5033014;28;20033;-81
2023/11/19 02:32:21;;;;;;;0.82;0.80;;;;;;;;;;5032561;28;20021;-82
2023/11/19 02:34:48;;;;;;;0.70;0.70;;;;;;;;;;5032827;28;20025;-81
2023/11/19 02:37:14;;;;;;;0.85;0.80;;;;;;;;;;5033729;28;20530;-79
2023/11/19 02:39:41;;;;;;;0.85;0.80;;;;;;;;;;5033738;28;20501;-78
2023/11/19 02:42:08;;;;;;;1.20;1.10;;;;;;;;;;5032644;28;20523;-79
2023/11/19 02:44:34;;;;;;;0.90;0.80;;;;;;;;;;5032544;28;20026;-79
2023/11/19 02:47:02;;;;;;;0.80;0.80;;;;;;;;;;5032156;28;20025;-84
2023/11/19 02:49:28;;;;;;;1.23;0.93;;;;;;;;;;5032242;28;20487;-79
2023/11/19 02:51:54;;;;;;;0.82;0.80;;;;;;;;;;5032536;28;20025;-80
2023/11/19 02:54:26;;;;;;;0.73;0.73;;;;;;;;;;5032392;28;20028;-80
2023/11/19 02:56:55;;;;;;;1.23;1.13;;;;;;;;;;5032558;28;20021;-78
2023/11/19 02:59:27;;;;;;;1.17;1.08;;;;;;;;;;5033078;28;20123;-80
2023/11/19 03:01:53;;;;;;;0.83;0.80;;;;;;;;;;5032403;28;20030;-79
2023/11/19 03:04:20;;;;;;;0.93;0.88;;;;;;;;;;5033696;28;20026;-81
2023/11/19 03:06:46;;;;;;;0.85;0.82;;;;;;;;;;5032397;28;20036;-78
2023/11/19 03:09:13;;;;;;;0.75;0.75;;;;;;;;;;5033143;28;20533;-80
2023/11/19 03:11:39;;;;;;;0.73;0.73;;;;;;;;;;5033959;28;20028;-79
2023/11/19 03:14:05;;;;;;;0.85;0.80;;;;;;;;;;5033208;28;20024;-77
2023/11/19 03:16:32;;;;;;;1.02;0.82;;;;;;;;;;5032395;28;20022;-81
2023/11/19 03:19:00;;;;;;;1.17;1.08;;;;;;;;;;5032381;28;20032;-78
2023/11/19 03:21:31;;;;;;;1.00;0.90;;;;;;;;;;5032230;28;20084;-79
2023/11/19 03:23:59;;;;;;;0.63;0.63;;;;;;;;;;5037426;28;20037;-80
2023/11/19 03:26:26;;;;;;;1.13;0.90;;;;;;;;;;5035934;28;20112;-81
2023/11/19 03:28:52;;;;;;;1.02;0.93;;;;;;;;;;5035920;28;20057;-79
2023/11/19 03:31:18;;;;;;;1.08;0.98;;;;;;;;;;5036086;28;20025;-80
2023/11/19 03:33:45;;;;;;;1.00;0.90;;;;;;;;;;5037124;28;20044;-77
2023/11/19 03:36:12;;;;;;;2.13;1.23;;;;;;;;;;5035659;28;20028;-77
2023/11/19 03:38:38;;;;;;;0.70;0.70;;;;;;;;;;5035688;28;20029;-78
2023/11/19 03:41:12;;;;;;;0.70;0.70;;;;;;;;;;5035963;28;20420;-78
2023/11/19 03:43:38;;;;;;;1.73;0.88;;;;;;;;;;5035606;28;20017;-80
2023/11/19 03:46:05;;;;;;;0.90;0.85;;;;;;;;;;5035603;28;20417;-81
2023/11/19 03:48:31;;;;;;;1.00;0.90;;;;;;;;;;5035760;28;20045;-78
2023/11/19 03:50:57;;;;;;;0.60;0.60;;;;;;;;;;5036816;28;20029;-79
2023/11/19 03:53:24;;;;;;;0.70;0.70;;;;;;;;;;5035975;28;20408;-77
2023/11/19 03:55:50;;;;;;;0.82;0.80;;;;;;;;;;5036076;28;20389;-78
2023/11/19 03:58:16;;;;;;;0.80;0.73;;;;;;;;;;5037057;28;20021;-80
2023/11/19 04:00:42;;;;;;;0.88;0.80;;;;;;;;;;5036983;28;20111;-79
2023/11/19 04:03:08;;;;;;;0.80;0.80;;;;;;;;;;5035356;28;20057;-81
2023/11/19 04:05:35;;;;;;;1.00;0.90;;;;;;;;;;5035586;28;20496;-78
2023/11/19 04:08:01;;;;;;;1.13;0.93;;;;;;;;;;5035393;28;20025;-80
2023/11/19 04:10:27;;;;;;;0.75;0.75;;;;;;;;;;5035826;28;20049;-77
2023/11/19 04:12:53;;;;;;;0.70;0.70;;;;;;;;;;5035479;28;20021;-78
2023/11/19 04:15:19;;;;;;;0.90;0.80;;;;;;;;;;5035304;28;20026;-80
2023/11/19 04:17:45;;;;;;;0.82;0.80;;;;;;;;;;5035447;28;20369;-78
2023/11/19 04:20:13;;;;;;;1.50;1.40;;;;;;;;;;5035890;28;20061;-80
2023/11/19 04:22:40;;;;;;;1.40;1.25;;;;;;;;;;5035144;28;20028;-79
2023/11/19 04:25:06;;;;;;;0.82;0.82;;;;;;;;;;5036761;28;20065;-80
2023/11/19 04:27:32;;;;;;;0.82;0.80;;;;;;;;;;5036908;28;20398;-79
2023/11/19 04:30:01;;;;;;;0.93;0.82;;;;;;;;;;5035149;28;20028;-79
2023/11/19 04:32:27;;;;;;;0.90;0.80;;;;;;;;;;5034584;28;20021;-80
2023/11/19 04:34:53;;;;;;;0.85;0.80;;;;;;;;;;5036122;28;20136;-79
2023/11/19 04:37:19;;;;;;;1.05;0.90;;;;;;;;;;5035018;28;20029;-79
2023/11/19 04:39:46;;;;;;;0.80;0.70;;;;;;;;;;5034399;28;20137;-79
2023/11/19 04:42:12;;;;;;;1.02;0.80;;;;;;;;;;5034807;28;20022;-80
2023/11/19 04:44:38;;;;;;;0.82;0.80;;;;;;;;;;5034792;28;20057;-79
2023/11/19 04:47:04;;;;;;;0.82;0.80;;;;;;;;;;5035545;28;20014;-78
2023/11/19 04:49:31;;;;;;;1.00;0.90;;;;;;;;;;5034922;28;20040;-78
2023/11/19 04:51:57;;;;;;;1.00;0.90;;;;;;;;;;5034742;28;20115;-80
2023/11/19 04:54:24;;;;;;;1.00;0.90;;;;;;;;;;5034735;28;20078;-81
2023/11/19 04:56:51;;;;;;;1.30;1.10;;;;;;;;;;5035926;28;20026;-80
2023/11/19 04:59:17;;;;;;;1.20;1.00;;;;;;;;;;5034378;28;20025;-81
2023/11/19 05:01:47;;;;;;;0.75;0.75;;;;;;;;;;5035023;28;20024;-80
2023/11/19 05:04:14;;;;;;;1.63;1.27;;;;;;;;;;5035843;28;20021;-78
2023/11/19 05:06:40;;;;;;;1.00;0.82;;;;;;;;;;5034219;28;20017;-78
2023/11/19 05:09:12;;;;;;;0.85;0.80;;;;;;;;;;5034365;28;20025;-79
2023/11/19 05:11:38;;;;;;;1.20;1.02;;;;;;;;;;5034269;28;20021;-80
2023/11/19 05:14:05;;;;;;;1.15;0.90;;;;;;;;;;5034085;28;20465;-78
2023/11/19 05:16:31;;;;;;;0.70;0.70;;;;;;;;;;5034105;28;20029;-79
2023/11/19 05:18:57;;;;;;;0.85;0.80;;;;;;;;;;5034556;28;20432;-78
2023/11/19 05:21:23;;;;;;;1.20;1.10;;;;;;;;;;5034006;28;20072;-81
2023/11/19 05:23:50;;;;;;;0.70;0.70;;;;;;;;;;5034121;28;20022;-81
2023/11/19 05:26:22;;;;;;;1.13;1.02;;;;;;;;;;5034938;28;20057;-80
2023/11/19 05:28:48;;;;;;;;;;;;;;;;;;5034309;28;20021;-79
2023/11/19 05:31:15;;;;;;;0.80;0.80;;;;;;;;;;5033693;28;20276;-78
2023/11/19 05:33:41;;;;;;;0.90;0.80;;;;;;;;;;5033929;28;20029;-80
2023/11/19 05:36:08;;;;;;;0.85;0.80;;;;;;;;;;5034725;28;20480;-81
2023/11/19 05:38:34;;;;;;;0.88;0.80;;;;;;;;;;5033541;28;20021;-78
2023/11/19 05:41:00;;;;;;;1.35;1.25;;;;;;;;;;5033738;28;20033;-79
2023/11/19 05:43:26;;;;;;;0.90;0.80;;;;;;;;;;5035074;28;20025;-79
2023/11/19 05:45:52;;;;;;;0.70;0.70;;;;;;;;;;5035199;28;20461;-79
2023/11/19 05:48:18;;;;;;;0.85;0.73;;;;;;;;;;5033500;28;20049;-78
2023/11/19 05:50:44;;;;;;;0.88;0.77;;;;;;;;;;5033555;28;20025;-79
2023/11/19 05:53:13;;;;;;;0.80;0.77;;;;;;;;;;5033261;28;20037;-81
2023/11/19 05:55:55;;;;;;;0.70;0.70;;;;;;;;;;5034620;28;20021;-79
2023/11/19 05:58:26;;;;;;;0.90;0.80;;;;;;;;;;5034270;28;20540;-79
2023/11/19 06:00:52;;;;;;;0.68;0.68;;;;;;;;;;5033260;28;20037;-78
2023/11/19 06:03:18;;;;;;;0.70;0.70;;;;;;;;;;5033143;28;20045;-78
2023/11/19 06:05:48;;;;;;;1.40;1.10;;;;;;;;;;5033955;28;20053;-81
2023/11/19 06:08:14;;;;;;;0.70;0.70;;;;;;;;;;5033154;28;20025;-79
2023/11/19 06:10:41;;;;;;;1.80;1.35;;;;;;;;;;5032990;28;20028;-78
2023/11/19 06:13:09;;;;;;;0.80;0.80;;;;;;;;;;5033459;28;20032;-80
2023/11/19 06:15:36;;;;;;;1.00;0.90;;;;;;;;;;5033215;28;20108;-80
2023/11/19 06:18:03;;;;;;;0.88;0.80;;;;;;;;;;5034341;28;20029;-78
2023/11/19 06:20:30;;;;;;;1.20;0.90;;;;;;;;;;5032991;28;20107;-81
2023/11/19 06:22:56;;;;;;;0.80;0.80;;;;;;;;;;5032986;28;20025;-79
2023/11/19 06:25:23;;;;;;;1.10;0.95;;;;;;;;;;5033923;28;20017;-79
2023/11/19 06:27:50;;;;;;;0.70;0.70;;;;;;;;;;5032923;28;20025;-81
2023/11/19 06:30:16;;;;;;;0.80;0.80;;;;;;;;;;5032375;28;20033;-79
2023/11/19 06:32:42;;;;;;;1.85;1.25;;;;;;;;;;5034584;28;20115;-81
2023/11/19 06:35:09;;;;;;;0.90;0.80;;;;;;;;;;5032433;28;20029;-78
2023/11/19 06:37:36;;;;;;;0.88;0.80;;;;;;;;;;5033936;28;20215;-81
2023/11/19 06:40:04;;;;;;;0.85;0.80;;;;;;;;;;5032807;28;20056;-79
2023/11/19 06:42:31;;;;;;;0.80;0.80;;;;;;;;;;5034386;28;20024;-78
2023/11/19 06:44:57;;;;;;;0.70;0.70;;;;;;;;;;5032933;28;20022;-79
2023/11/19 06:47:26;;;;;;;0.98;0.80;;;;;;;;;;5033071;28;20125;-77
2023/11/19 06:49:53;;;;;;;0.95;0.80;;;;;;;;;;5032682;28;20028;-79
2023/11/19 06:52:19;;;;;;;0.63;0.60;;;;;;;;;;5033739;28;20022;-78
2023/11/19 06:54:48;;;;;;;0.75;0.70;;;;;;;;;;5038025;28;20026;-78
2023/11/19 06:57:14;;;;;;;1.20;1.00;;;;;;;;;;5045976;28;20469;-79
2023/11/19 06:59:40;;;;;;;1.20;1.10;;;;;;;;;;5047260;28;20067;-79
2023/11/19 07:02:07;;;;;;;0.93;0.82;;;;;;;;;;5048298;28;20113;-79
2023/11/19 07:04:33;;;;;;;2.42;1.35;;;;;;;;;;5047919;28;20057;-78
2023/11/19 07:06:59;;;;;;;1.65;1.55;;;;;;;;;;5047536;28;20051;-80
2023/11/19 07:09:26;;;;;;;2.00;1.02;;;;;;;;;;5043579;28;20026;-80
2023/11/19 07:11:52;;;;;;;5.85;1.77;;;;;;;;;;5044357;28;20449;-80
2023/11/19 07:14:18;;;;;;;1.10;0.90;;;;;;;;;;5038284;28;20021;-79
2023/11/19 07:16:46;;;;;;;0.88;0.85;;;;;;;;;;5038908;28;20155;-82
2023/11/19 07:19:12;;;;;;;1.30;1.20;;;;;;;;;;5036363;28;20022;-79
2023/11/19 07:21:43;;;;;;;1.73;1.63;;;;;;;;;;5038263;28;20059;-79
2023/11/19 07:24:10;;;;;;;0.73;0.73;;;;;;;;;;5036439;28;20026;-80
2023/11/19 07:26:37;;;;;;;0.80;0.80;;;;;;;;;;5036216;28;20457;-80
2023/11/19 07:29:07;;;;;;;0.98;0.88;;;;;;;;;;5036540;28;20076;-79
2023/11/19 07:31:33;;;;;;;1.02;0.88;;;;;;;;;;5035943;28;20030;-79
2023/11/19 07:33:59;;;;;;;0.70;0.70;;;;;;;;;;5035834;28;20057;-80
2023/11/19 07:36:25;;;;;;;0.80;0.80;;;;;;;;;;5036059;28;20084;-78
2023/11/19 07:38:51;;;;;;;0.90;0.80;;;;;;;;;;5037198;28;20021;-80
2023/11/19 07:41:17;;;;;;;1.23;1.15;;;;;;;;;;5035677;28;20037;-80
2023/11/19 07:43:44;;;;;;;0.85;0.82;;;;;;;;;;5035762;28;20026;-78
2023/11/19 07:46:14;;;;;;;1.08;0.90;;;;;;;;;;5035926;28;20036;-80
2023/11/19 07:48:42;;;;;;;1.10;0.90;;;;;;;;;;5035831;28;20482;-79
2023/11/19 07:51:08;;;;;;;0.88;0.80;;;;;;;;;;5036067;28;20389;-79
2023/11/19 07:53:34;;;;;;;0.80;0.80;;;;;;;;;;5036477;28;20017;-80
2023/11/19 07:56:01;;;;;;;1.30;1.20;;;;;;;;;;5036043;28;20492;-80
2023/11/19 07:58:27;;;;;;;1.33;0.98;;;;;;;;;;5035582;28;20021;-78
2023/11/19 08:00:53;;;;;;;0.88;0.80;;;;;;;;;;5035593;28;20033;-79
2023/11/19 08:03:21;;;;;;;0.70;0.70;;;;;;;;;;5036686;28;20450;-80
2023/11/19 08:05:48;;;;;;;0.73;0.70;;;;;;;;;;5036580;28;20028;-78
2023/11/19 08:08:14;;;;;;;1.00;0.90;;;;;;;;;;5034614;28;20059;-78
2023/11/19 08:10:40;;;;;;;0.80;0.70;;;;;;;;;;5035421;28;20036;-78
2023/11/19 08:13:09;;;;;;;0.80;0.80;;;;;;;;;;5035356;28;20025;-81
2023/11/19 08:15:35;;;;;;;0.88;0.82;;;;;;;;;;5035355;28;20416;-79
2023/11/19 08:18:02;;;;;;;1.10;1.00;;;;;;;;;;5035285;28;20022;-78
2023/11/19 08:20:28;;;;;;;0.65;0.60;;;;;;;;;;5035140;28;20124;-78
2023/11/19 08:22:54;;;;;;;0.70;0.70;;;;;;;;;;5034781;28;20475;-76
2023/11/19 08:25:20;;;;;;;0.77;0.77;;;;;;;;;;5034819;28;20021;-79
2023/11/19 08:27:46;;;;;;;0.93;0.82;;;;;;;;;;5034185;28;20101;-77
2023/11/19 08:30:13;;;;;;;1.00;0.90;;;;;;;;;;5034812;28;20080;-78
2023/11/19 08:32:39;;;;;;;0.85;0.80;;;;;;;;;;5034834;28;20029;-78
2023/11/19 08:35:05;;;;;;;0.73;0.73;;;;;;;;;;5036456;28;20026;-78
2023/11/19 08:37:31;;;;;;;0.80;0.80;;;;;;;;;;5034662;28;20026;-78
2023/11/19 08:39:57;;;;;;;0.70;0.70;;;;;;;;;;5034359;28;20058;-77
2023/11/19 08:42:23;;;;;;;0.85;0.80;;;;;;;;;;5035291;28;20028;-79
2023/11/19 08:44:50;;;;;;;0.80;0.80;;;;;;;;;;5034562;28;20457;-79
2023/11/19 08:47:19;;;;;;;0.80;0.80;;;;;;;;;;5035578;28;20472;-78
2023/11/19 08:49:46;;;;;;;0.82;0.80;;;;;;;;;;5034291;28;20029;-78
2023/11/19 08:52:12;;;;;;;1.10;1.00;;;;;;;;;;5034379;28;20022;-78
2023/11/19 08:54:38;;;;;;;0.75;0.70;;;;;;;;;;5036139;28;20475;-78
2023/11/19 08:57:07;;;;;;;0.68;0.68;;;;;;;;;;5034256;28;20025;-79
2023/11/19 08:59:33;;;;;;;0.80;0.80;;;;;;;;;;5034336;28;20032;-77
2023/11/19 09:02:00;;;;;;;0.85;0.80;;;;;;;;;;5034283;28;20075;-78
2023/11/19 09:04:26;;;;;;;0.70;0.68;;;;;;;;;;5034620;28;20022;-80
2023/11/19 09:06:52;;;;;;;0.98;0.80;;;;;;;;;;5035909;28;20029;-78
2023/11/19 09:09:18;;;;;;;0.88;0.80;;;;;;;;;;5034029;28;20053;-78
2023/11/19 09:11:44;;;;;;;1.33;1.23;;;;;;;;;;5034574;28;20021;-81
2023/11/19 09:14:10;;;;;;;0.90;0.80;;;;;;;;;;5034508;28;20511;-79
2023/11/19 09:16:36;;;;;;;0.60;0.60;;;;;;;;;;5036005;28;20021;-80
2023/11/19 09:19:02;;;;;;;0.80;0.70;;;;;;;;;;5035691;28;20120;-82
2023/11/19 09:21:32;;;;;;;1.15;0.88;;;;;;;;;;5035019;28;20464;-81
2023/11/19 09:23:58;;;;;;;0.90;0.80;;;;;;;;;;5034212;28;20029;-84
2023/11/19 09:26:24;;;;;;;2.17;1.20;;;;;;;;;;5042458;28;20480;-86
2023/11/19 09:28:50;;;;;;;0.70;0.70;;;;;;;;;;5053374;28;20037;-86
2023/11/19 09:31:17;;;;;;;0.90;0.80;;;;;;;;;;5053282;28;20037;-81
2023/11/19 09:33:43;;;;;;;0.98;0.80;;;;;;;;;;5053502;28;20051;-79
2023/11/19 09:36:11;;;;;;;0.88;0.80;;;;;;;;;;5050983;28;20025;-80
2023/11/19 09:38:38;;;;;;;1.02;0.93;;;;;;;;;;5053501;28;20025;-80
2023/11/19 09:41:12;;;;;;;1.63;1.05;;;;;;;;;;5053428;28;20025;-81
2023/11/19 09:43:38;;;;;;;0.63;0.63;;;;;;;;;;5054004;28;20027;-83
2023/11/19 09:46:11;;;;;;;0.70;0.70;;;;;;;;;;5053458;28;20384;-79
2023/11/19 09:48:37;;;;;;;1.00;0.80;;;;;;;;;;5053601;28;20019;-80
2023/11/19 09:51:05;;;;;;;0.80;0.70;;;;;;;;;;5053748;28;20029;-82
2023/11/19 09:53:31;;;;;;;1.10;1.00;;;;;;;;;;5066707;28;20020;-78
2023/11/19 09:56:00;;;;;;;1.00;0.88;;;;;;;;;;5069917;28;20025;-81
2023/11/19 09:58:26;;;;;;;1.63;1.40;;;;;;;;;;5071395;28;20084;-79
2023/11/19 10:00:53;;;;;;;0.93;0.80;;;;;;;;;;5072396;28;20033;-77
2023/11/19 10:03:19;;;;;;;2.67;0.90;;;;;;;;;;5058563;28;20440;-81
2023/11/19 10:05:45;;;;;;;0.90;0.80;;;;;;;;;;5054333;28;20029;-81
2023/11/19 10:08:11;;;;;;;0.90;0.80;;;;;;;;;;5047273;28;20031;-79
2023/11/19 10:10:38;;;;;;;0.88;0.77;;;;;;;;;;4989012;28;20506;-79
2023/11/19 10:13:04;;;;;;;1.08;0.95;;;;;;;;;;4992087;28;20026;-78
2023/11/19 10:15:34;;;;;;;0.85;0.80;;;;;;;;;;4994239;28;20430;-82
2023/11/19 10:18:00;;;;;;;1.27;0.98;;;;;;;;;;4993041;28;20026;-82
2023/11/19 10:20:26;;;;;;;1.73;1.63;;;;;;;;;;4993322;28;20030;-83
2023/11/19 10:22:58;;;;;;;1.20;0.98;;;;;;;;;;4993371;28;20022;-82
2023/11/19 10:25:25;;;;;;;1.10;0.95;;;;;;;;;;4993244;28;20026;-80
2023/11/19 10:27:52;;;;;;;0.80;0.70;;;;;;;;;;4993398;28;20041;-82
2023/11/19 10:30:21;;;;;;;0.77;0.70;;;;;;;;;;4992756;28;20042;-83
2023/11/19 10:33:03;;;;;;;2.83;1.00;;;;;;;;;;4993401;28;20034;-80
2023/11/19 10:35:29;;;;;;;1.27;0.95;;;;;;;;;;4993332;28;20471;-80
2023/11/19 10:37:55;;;;;;;1.20;1.10;;;;;;;;;;4993327;28;20034;-82
2023/11/19 10:40:21;;;;;;;1.67;1.00;;;;;;;;;;4994511;28;20493;-80
2023/11/19 10:42:48;;;;;;;1.40;1.20;;;;;;;;;;4990978;28;20105;-80
2023/11/19 10:45:24;;;;;;;1.05;0.95;;;;;;;;;;4992888;28;20034;-82
2023/11/19 10:47:52;;;;;;;1.00;0.80;;;;;;;;;;4993609;28;20031;-80
2023/11/19 10:50:19;;;;;;;0.90;0.80;;;;;;;;;;4976865;28;20478;-80
2023/11/19 10:52:46;;;;;;;0.80;0.70;;;;;;;;;;4992946;28;20369;-80
2023/11/19 10:55:15;;;;;;;1.38;1.15;;;;;;;;;;4998740;28;20029;-79
2023/11/19 10:57:44;;;;;;;0.90;0.80;;;;;;;;;;5012430;28;20038;-81
2023/11/19 11:00:12;;;;;;;1.50;1.40;;;;;;;;;;4997594;28;20470;-80
2023/11/19 11:02:41;;;;;;;1.00;0.80;;;;;;;;;;4993969;28;20062;-80
2023/11/19 11:05:08;;;;;;;1.17;0.85;;;;;;;;;;4992900;28;20422;-81
2023/11/19 11:07:34;;;;;;;1.10;0.90;;;;;;;;;;4992856;28;20027;-80
2023/11/19 11:10:03;;;;;;;1.10;0.90;;;;;;;;;;4989527;28;20038;-81
2023/11/19 11:12:29;;;;;;;0.90;0.80;;;;;;;;;;4985902;28;20026;-80
2023/11/19 11:14:56;;;;;;;0.80;0.70;;;;;;;;;;4989420;28;20605;-80
2023/11/19 11:17:24;;;;;;;0.77;0.77;;;;;;;;;;4990127;28;20109;-80
2023/11/19 11:19:51;;;;;;;0.70;0.68;;;;;;;;;;4994022;28;20121;-80
2023/11/19 11:22:18;;;;;;;0.70;0.70;;;;;;;;;;4994271;28;20062;-81
2023/11/19 11:25:03;;;;;;;1.02;0.93;;;;;;;;;;4992739;28;20546;-80
2023/11/19 11:27:38;;;;;;;1.55;1.00;;;;;;;;;;4989986;28;20018;-80
2023/11/19 11:30:10;;;;;;;1.10;0.90;;;;;;;;;;4973281;28;20035;-80
2023/11/19 11:32:54;;;;;;;0.85;0.77;;;;;;;;;;4985576;28;20045;-80
2023/11/19 11:35:43;;;;;;;1.10;0.80;;;;;;;;;;4992520;28;20035;-80
2023/11/19 11:38:10;;;;;;;1.05;0.90;;;;;;;;;;5006109;28;20031;-80
2023/11/19 11:40:36;;;;;;;1.25;1.15;;;;;;;;;;4988752;28;20054;-81
2023/11/19 11:43:03;;;;;;;1.55;0.93;;;;;;;;;;4991525;28;20030;-81
2023/11/19 11:45:45;;;;;;;3.03;1.00;;;;;;;;;;4990891;28;20110;-80
2023/11/19 11:48:12;;;;;;;1.00;0.90;;;;;;;;;;5009617;28;20070;-80
2023/11/19 11:50:52;;;;;;;0.82;0.80;;;;;;;;;;5004001;28;20548;-81
2023/11/19 11:53:24;;;;;;;0.80;0.70;;;;;;;;;;4999685;28;20049;-81
2023/11/19 11:55:50;;;;;;;1.33;0.90;;;;;;;;;;4998653;28;20383;-80
2023/11/19 11:58:26;;;;;;;1.08;0.80;;;;;;;;;;4990836;28;20029;-83
2023/11/19 12:00:52;;;;;;;0.98;0.82;;;;;;;;;;5009331;28;20090;-81
2023/11/19 12:03:21;;;;;;;0.70;0.70;;;;;;;;;;5009426;28;20030;-81
2023/11/19 12:05:48;;;;;;;1.05;0.80;;;;;;;;;;5009527;28;20113;-83
2023/11/19 12:08:16;;;;;;;1.50;1.20;;;;;;;;;;5009131;28;20114;-82
2023/11/19 12:10:47;;;;;;;1.20;1.00;;;;;;;;;;5009351;28;20364;-81
2023/11/19 12:13:14;;;;;;;3.05;1.20;;;;;;;;;;5009193;28;20055;-81
2023/11/19 12:15:58;;;;;;;0.80;0.70;;;;;;;;;;5010278;28;20023;-82
2023/11/19 12:18:24;;;;;;;0.77;0.70;;;;;;;;;;4977663;28;20031;-81
2023/11/19 12:20:51;;;;;;;0.77;0.70;;;;;;;;;;5012847;28;20057;-79
2023/11/19 12:23:17;;;;;;;1.30;0.90;;;;;;;;;;4994651;28;20026;-81
2023/11/19 12:25:45;;;;;;;1.10;0.90;;;;;;;;;;4993706;28;20489;-79
2023/11/19 12:28:17;;;;;;;3.10;1.20;;;;;;;;;;4994978;28;20478;-79
2023/11/19 12:30:43;;;;;;;1.05;0.88;;;;;;;;;;4992417;28;20042;-79
2023/11/19 12:33:10;;;;;;;1.23;0.93;;;;;;;;;;4995579;28;20058;-79
2023/11/19 12:35:42;;;;;;;0.73;0.73;;;;;;;;;;4995201;28;20030;-79
2023/11/19 12:38:08;;;;;;;1.50;1.00;;;;;;;;;;4996479;28;20478;-79
2023/11/19 12:40:34;;;;;;;1.40;1.05;;;;;;;;;;4994706;28;20050;-79
2023/11/19 12:43:01;;;;;;;1.00;0.80;;;;;;;;;;4995824;28;20041;-79
2023/11/19 12:45:36;;;;;;;0.80;0.70;;;;;;;;;;4995038;28;20053;-77
2023/11/19 12:48:12;;;;;;;0.85;0.80;;;;;;;;;;4994901;28;20466;-77
2023/11/19 12:50:57;;;;;;;0.85;0.70;;;;;;;;;;4995039;28;20037;-77
2023/11/19 12:53:24;;;;;;;3.08;1.45;;;;;;;;;;4994653;28;20069;-78
2023/11/19 12:55:51;;;;;;;1.52;1.00;;;;;;;;;;4995016;28;20046;-78
2023/11/19 12:58:30;;;;;;;1.08;0.85;;;;;;;;;;4995356;28;20101;-82
2023/11/19 13:01:11;;;;;;;1.00;0.80;;;;;;;;;;4996381;28;20455;-81
2023/11/19 13:03:38;;;;;;;1.67;1.35;;;;;;;;;;4994458;28;20022;-78
2023/11/19 13:06:10;;;;;;;1.00;0.70;;;;;;;;;;4994951;28;20493;-78
2023/11/19 13:08:49;;;;;;;1.20;0.80;;;;;;;;;;4995986;28;20023;-78
2023/11/19 13:11:30;;;;;;;0.60;0.60;;;;;;;;;;4990264;28;20034;-78
2023/11/19 13:13:56;;;;;;;1.00;0.80;;;;;;;;;;4991183;28;20027;-78
2023/11/19 13:16:22;;;;;;;0.80;0.70;;;;;;;;;;4979540;28;20089;-78
2023/11/19 13:18:49;;;;;;;1.25;0.90;;;;;;;;;;4992845;28;20105;-78
2023/11/19 13:21:15;;;;;;;1.67;1.10;;;;;;;;;;4993841;28;20300;-78
2023/11/19 13:23:41;;;;;;;1.35;0.88;;;;;;;;;;4995742;28;20085;-78
2023/11/19 13:26:07;;;;;;;0.85;0.70;;;;;;;;;;4994381;28;20386;-79
2023/11/19 13:28:33;;;;;;;1.52;1.15;;;;;;;;;;4994117;28;20026;-77
2023/11/19 13:30:59;;;;;;;1.20;0.93;;;;;;;;;;4993813;28;20018;-79
2023/11/19 13:33:26;;;;;;;2.22;1.38;;;;;;;;;;4994154;28;20022;-79
2023/11/19 13:35:53;;;;;;;4.13;1.00;;;;;;;;;;4993966;28;20079;-79
2023/11/19 13:38:19;;;;;;;0.93;0.73;;;;;;;;;;4995139;28;20533;-79
2023/11/19 13:40:45;;;;;;;2.13;1.15;;;;;;;;;;4993182;28;20054;-81
2023/11/19 13:43:11;;;;;;;1.52;1.17;;;;;;;;;;4993951;28;20478;-79
2023/11/19 13:45:37;;;;;;;2.13;1.92;;;;;;;;;;4994895;28;20504;-80
2023/11/19 13:48:03;;;;;;;1.10;1.00;;;;;;;;;;4993719;28;20429;-79
2023/11/19 13:50:30;;;;;;;1.55;1.20;;;;;;;;;;4993778;28;20030;-79
2023/11/19 13:52:56;;;;;;;2.15;1.23;;;;;;;;;;4993505;28;20026;-80
2023/11/19 13:55:22;;;;;;;1.17;0.88;;;;;;;;;;4990354;28;20030;-79
2023/11/19 13:57:48;;;;;;;1.45;0.88;;;;;;;;;;4984998;28;20050;-79
2023/11/19 14:00:18;;;;;;;0.90;0.80;;;;;;;;;;4993250;28;20556;-79
2023/11/19 14:02:46;;;;;;;1.38;1.00;;;;;;;;;;4989482;28;20030;-79
2023/11/19 14:05:13;;;;;;;0.73;0.70;;;;;;;;;;4992841;28;20053;-78
2023/11/19 14:07:40;;;;;;;6.82;1.33;;;;;;;;;;4993005;28;20026;-79
2023/11/19 14:10:06;;;;;;;0.90;0.80;;;;;;;;;;4993606;28;20058;-78
2023/11/19 14:12:37;;;;;;;0.95;0.77;;;;;;;;;;4993269;28;20071;-79
2023/11/19 14:15:03;;;;;;;0.85;0.75;;;;;;;;;;4993513;28;20117;-78
2023/11/19 14:17:31;;;;;;;2.38;1.42;;;;;;;;;;4994503;28;20077;-79
2023/11/19 14:19:57;;;;;;;3.92;1.50;;;;;;;;;;4993111;28;20034;-79
2023/11/19 14:22:24;;;;;;;5.40;1.65;;;;;;;;;;4993286;28;20025;-79
2023/11/19 14:24:50;;;;;;;1.77;1.33;;;;;;;;;;4993230;28;20492;-78
2023/11/19 14:27:17;;;;;;;2.25;2.05;;;;;;;;;;4993132;28;20032;-78
2023/11/19 14:29:45;;;;;;;0.95;0.80;;;;;;;;;;4994805;28;20117;-78
2023/11/19 14:32:11;;;;;;;0.95;0.82;;;;;;;;;;4994865;28;20375;-79
2023/11/19 14:34:38;;;;;;;2.53;1.30;;;;;;;;;;4993084;28;20019;-79
2023/11/19 14:37:04;;;;;;;1.35;1.08;;;;;;;;;;4994579;28;20019;-78
2023/11/19 14:39:31;;;;;;;0.80;0.70;;;;;;;;;;4993700;28;20442;-79
2023/11/19 14:42:04;;;;;;;1.65;1.02;;;;;;;;;;4993085;28;20116;-78
2023/11/19 14:44:31;;;;;;;1.05;0.85;;;;;;;;;;4993270;28;20084;-79